Heidelberg, Minnesota
Current Conditions -  °F | °C
As of 1:46 PM on Sunday 23 Nov 2014 (Local Time) from KLVN Reporting Station
Haze Haze  
Wind Chill: 39°   Ceiling: 500
Heat Index: 45°   Visibility: 3mi
Dew Point: 45°   Wind: 10mph
Humidity: 100%   Direction: 310°NW
Pressure: 29.38"   Gusts: NA
Location:  44.5257°N, 93.5843°W
Report Text: KLVN 231946Z AUTO 31009KT 3SM BR OVC005 07/07 A2938 RMK AO2
Loading
Personal Weather Stations






























Interactive Weather Map New forecast layout! Learn more

10-Day Weather Forecast

Advertisements
Track Severe Weather on mobile